createdAt,value
2023-02-23T00:00:21.025Z,100323.91
2023-02-23T00:03:33.753Z,100327.47
2023-02-23T00:06:46.187Z,100326.44
2023-02-23T00:09:58.924Z,100327.53
2023-02-23T00:13:11.221Z,100321.13
2023-02-23T00:16:24.906Z,100326.91
2023-02-23T00:19:37.860Z,100329.31
2023-02-23T00:22:51.455Z,100327.03
2023-02-23T00:26:04.474Z,100335.03
2023-02-23T00:29:22.066Z,100331.09
2023-02-23T00:32:35.214Z,100328.06
2023-02-23T00:35:47.817Z,100333.44
2023-02-23T00:39:02.022Z,100331.63
2023-02-23T00:42:15.533Z,100337.47
2023-02-23T00:45:27.848Z,100330.06
2023-02-23T00:48:40.449Z,100326.97
2023-02-23T00:51:53.083Z,100325.41
2023-02-23T00:55:13.322Z,100329.31
2023-02-23T00:58:26.146Z,100327.53
2023-02-23T01:01:39.118Z,100328.81
2023-02-23T01:04:52.813Z,100329.47
2023-02-23T01:08:09.404Z,100324.31
2023-02-23T01:11:22.967Z,100324.16
2023-02-23T01:14:35.818Z,100327.84
2023-02-23T01:17:49.776Z,100331.41
2023-02-23T01:21:03.091Z,100327.53
2023-02-23T01:24:15.412Z,100332.72
2023-02-23T01:27:29.293Z,100326.53
2023-02-23T01:30:41.793Z,100328.81
2023-02-23T01:33:58.430Z,100335.28
2023-02-23T01:37:10.759Z,100325.25
2023-02-23T01:40:29.866Z,100326.72
2023-02-23T01:44:14.319Z,100319.91
2023-02-23T01:47:27.334Z,100326.84
2023-02-23T01:50:57.065Z,100324.63
2023-02-23T01:54:14.512Z,100328.66
2023-02-23T01:57:27.388Z,100325.94
2023-02-23T02:00:40.242Z,100328.66
2023-02-23T02:03:57.908Z,100316.88
2023-02-23T02:07:10.883Z,100317.50
2023-02-23T02:10:39.569Z,100317.81
2023-02-23T02:14:13.933Z,100319.78
2023-02-23T02:17:41.717Z,100316.59
2023-02-23T02:21:06.061Z,100309.94
2023-02-23T02:24:40.407Z,100313.34
2023-02-23T02:28:30.235Z,100316.59
2023-02-23T02:32:02.682Z,100307.53
2023-02-23T02:35:46.988Z,100307.53
2023-02-23T02:39:10.553Z,100319.38
2023-02-23T02:42:30.153Z,100303.62
2023-02-23T02:45:45.751Z,100304.28
2023-02-23T02:49:02.662Z,100314.00
2023-02-23T02:52:17.785Z,100313.34
2023-02-23T02:55:34.444Z,100313.97
2023-02-23T02:58:47.344Z,100324.19
2023-02-23T03:02:18.570Z,100325.94
2023-02-23T03:06:00.294Z,100329.84
2023-02-23T03:09:39.391Z,100330.78
2023-02-23T03:13:13.765Z,100321.25
2023-02-23T03:17:13.288Z,100327.88
2023-02-23T03:20:53.648Z,100323.38
2023-02-23T03:24:30.520Z,100324.97
2023-02-23T03:28:13.716Z,100318.50
2023-02-23T03:31:59.605Z,100328.84
2023-02-23T03:35:37.160Z,100332.06
2023-02-23T03:39:15.204Z,100334.34
2023-02-23T03:42:49.021Z,100332.13
2023-02-23T03:46:19.972Z,100335.00
2023-02-23T03:49:56.553Z,100332.91
2023-02-23T03:53:27.516Z,100332.44
2023-02-23T03:57:00.164Z,100334.53
2023-02-23T04:00:34.336Z,100338.91
2023-02-23T04:04:05.460Z,100337.25
2023-02-23T04:07:37.791Z,100334.72
2023-02-23T04:11:10.490Z,100334.34
2023-02-23T04:14:44.821Z,100340.50
2023-02-23T04:17:57.458Z,100335.63
2023-02-23T04:21:09.847Z,100338.84
2023-02-23T04:24:22.522Z,100331.91
2023-02-23T04:27:36.123Z,100343.72
2023-02-23T04:30:48.790Z,100338.72
2023-02-23T04:34:01.196Z,100339.53
2023-02-23T04:37:13.844Z,100342.13
2023-02-23T04:40:26.545Z,100338.75
2023-02-23T04:43:39.211Z,100335.63
2023-02-23T04:46:51.565Z,100335.31
2023-02-23T04:50:04.548Z,100342.94
2023-02-23T04:53:16.869Z,100344.09
2023-02-23T04:56:29.747Z,100342.97
2023-02-23T04:59:42.528Z,100342.47
2023-02-23T05:02:56.045Z,100342.78
2023-02-23T05:06:08.357Z,100343.13
2023-02-23T05:09:20.971Z,100342.75
2023-02-23T05:12:33.357Z,100348.28
2023-02-23T05:15:46.136Z,100346.31
2023-02-23T05:18:58.515Z,100355.75
2023-02-23T05:22:12.674Z,100350.19
2023-02-23T05:25:25.490Z,100347.97
2023-02-23T05:28:38.728Z,100352.19
2023-02-23T05:31:51.205Z,100361.91
2023-02-23T05:35:03.984Z,100355.75
2023-02-23T05:38:16.380Z,100354.47
2023-02-23T05:41:29.016Z,100357.06
2023-02-23T05:44:41.377Z,100354.47
2023-02-23T05:47:54.013Z,100358.97
2023-02-23T05:51:11.644Z,100354.94
2023-02-23T05:54:24.300Z,100358.00
2023-02-23T05:57:36.673Z,100364.16
2023-02-23T06:00:49.288Z,100359.28
2023-02-23T06:04:02.424Z,100365.13
2023-02-23T06:07:15.970Z,100369.50
2023-02-23T06:10:28.610Z,100371.09
2023-02-23T06:13:41.296Z,100378.19
2023-02-23T06:16:53.910Z,100378.38
2023-02-23T06:20:07.322Z,100383.25
2023-02-23T06:23:20.062Z,100384.84
2023-02-23T06:26:33.334Z,100393.59
2023-02-23T06:29:45.928Z,100396.81
2023-02-23T06:32:58.265Z,100403.75
2023-02-23T06:36:11.001Z,100406.78
2023-02-23T06:39:23.352Z,100406.84
2023-02-23T06:42:36.760Z,100406.50
2023-02-23T06:45:49.145Z,100411.00
2023-02-23T06:49:01.945Z,100413.63
2023-02-23T06:52:14.570Z,100413.25
2023-02-23T06:55:27.304Z,100420.34
2023-02-23T06:58:40.606Z,100417.78
2023-02-23T07:01:53.290Z,100422.31
2023-02-23T07:05:05.803Z,100425.28
2023-02-23T07:08:18.523Z,100430.59
2023-02-23T07:11:30.850Z,100424.06
2023-02-23T07:14:43.500Z,100431.44
2023-02-23T07:17:56.867Z,100432.47
2023-02-23T07:21:09.464Z,100433.16
2023-02-23T07:24:21.989Z,100432.94
2023-02-23T07:27:34.975Z,100442.78
2023-02-23T07:30:47.722Z,100438.13
2023-02-23T07:34:00.337Z,100439.16
2023-02-23T07:37:12.718Z,100441.69
2023-02-23T07:40:26.233Z,100436.81
2023-02-23T07:43:38.835Z,100433.87
2023-02-23T07:46:53.130Z,100429.91
2023-02-23T07:50:09.836Z,100434.41
2023-02-23T07:53:22.434Z,100435.06
2023-02-23T07:56:35.421Z,100435.25
2023-02-23T07:59:48.589Z,100440.09
2023-02-23T08:03:01.456Z,100442.69
2023-02-23T08:06:14.101Z,100442.31
2023-02-23T08:09:26.429Z,100442.28
2023-02-23T08:12:39.199Z,100455.06
2023-02-23T08:15:51.548Z,100445.66
2023-02-23T08:19:04.264Z,100449.12
2023-02-23T08:22:16.568Z,100447.47
2023-02-23T08:25:31.841Z,100454.66
2023-02-23T08:28:45.887Z,100450.50
2023-02-23T08:31:58.699Z,100445.88
2023-02-23T08:35:11.181Z,100447.41
2023-02-23T08:38:23.776Z,100452.66
2023-02-23T08:41:36.153Z,100454.37
2023-02-23T08:44:51.573Z,100456.00
2023-02-23T08:48:04.048Z,100462.09
2023-02-23T08:51:16.900Z,100457.78
2023-02-23T08:54:29.381Z,100451.22
2023-02-23T08:57:42.020Z,100460.13
2023-02-23T09:00:54.383Z,100460.66
2023-02-23T09:04:06.997Z,100469.88
2023-02-23T09:07:22.657Z,100471.56
2023-02-23T09:10:35.791Z,100467.44
2023-02-23T09:13:48.148Z,100468.78
2023-02-23T09:17:00.781Z,100478.06
2023-02-23T09:20:15.764Z,100470.87
2023-02-23T09:23:29.500Z,100466.03
2023-02-23T09:26:43.529Z,100465.53
2023-02-23T09:29:57.584Z,100474.72
2023-02-23T09:33:10.030Z,100465.25
2023-02-23T09:36:24.225Z,100468.63
2023-02-23T09:39:38.947Z,100473.84
2023-02-23T09:43:02.550Z,100478.97
2023-02-23T09:47:04.663Z,100475.72
2023-02-23T09:50:22.670Z,100483.06
2023-02-23T09:53:41.595Z,100472.22
2023-02-23T09:56:56.393Z,100478.72
2023-02-23T10:00:27.460Z,100479.59
2023-02-23T10:03:46.771Z,100471.34
2023-02-23T10:07:06.630Z,100475.09
2023-02-23T10:10:38.171Z,100483.19
2023-02-23T10:14:18.839Z,100480.22
2023-02-23T10:18:15.998Z,100483.38
2023-02-23T10:21:36.178Z,100486.44
2023-02-23T10:25:01.707Z,100480.16
2023-02-23T10:28:20.235Z,100483.19
2023-02-23T10:31:43.829Z,100481.72
2023-02-23T10:34:56.808Z,100477.16
2023-02-23T10:38:16.348Z,100470.09
2023-02-23T10:41:29.470Z,100482.16
2023-02-23T10:44:43.551Z,100475.66
2023-02-23T10:47:55.780Z,100473.06
2023-02-23T10:51:19.125Z,100465.84
2023-02-23T10:54:39.568Z,100463.47
2023-02-23T10:58:01.827Z,100456.25
2023-02-23T11:01:15.929Z,100453.41
2023-02-23T11:04:33.258Z,100446.25
2023-02-23T11:07:45.586Z,100447.63
2023-02-23T11:11:14.650Z,100431.06
2023-02-23T11:14:30.518Z,100432.12
2023-02-23T11:17:43.129Z,100421.59
2023-02-23T11:20:55.564Z,100427.72
2023-02-23T11:24:15.481Z,100424.53
2023-02-23T11:27:27.854Z,100415.22
2023-02-23T11:30:42.951Z,100416.03
2023-02-23T11:33:55.580Z,100407.34
2023-02-23T11:37:23.134Z,100404.34
2023-02-23T11:40:35.508Z,100397.91
2023-02-23T11:43:52.039Z,100403.53
2023-02-23T11:47:04.437Z,100397.53
2023-02-23T11:50:30.335Z,100393.06
2023-02-23T11:53:45.324Z,100391.47
2023-02-23T11:56:58.650Z,100388.69
2023-02-23T12:00:22.752Z,100391.09
2023-02-23T12:03:35.399Z,100389.69
2023-02-23T12:06:47.750Z,100400.34
2023-02-23T12:10:26.876Z,100388.28
2023-02-23T12:13:46.127Z,100391.09
2023-02-23T12:17:05.331Z,100381.22
2023-02-23T12:20:26.978Z,100375.00
2023-02-23T12:23:39.991Z,100370.56
2023-02-23T12:26:59.141Z,100365.38
2023-02-23T12:30:35.748Z,100363.50
2023-02-23T12:33:50.631Z,100365.13
2023-02-23T12:37:18.636Z,100356.25
2023-02-23T12:40:32.547Z,100355.66
2023-02-23T12:43:51.628Z,100353.69
2023-02-23T12:47:41.218Z,100351.88
2023-02-23T12:50:55.792Z,100348.03
2023-02-23T12:54:09.724Z,100341.81
2023-02-23T12:57:52.265Z,100346.81
2023-02-23T13:01:22.064Z,100338.56
2023-02-23T13:04:47.356Z,100339.84
2023-02-23T13:08:13.263Z,100339.09
2023-02-23T13:11:41.557Z,100337.97
2023-02-23T13:14:57.346Z,100336.19
2023-02-23T13:18:45.152Z,100334.00
2023-02-23T13:22:32.289Z,100329.38
2023-02-23T13:25:55.621Z,100324.19
2023-02-23T13:29:45.790Z,100320.16
2023-02-23T13:33:02.394Z,100319.00
2023-02-23T13:36:14.729Z,100306.59
2023-02-23T13:39:52.907Z,100307.94
2023-02-23T13:43:30.220Z,100312.03
2023-02-23T13:46:59.616Z,100309.56
2023-02-23T13:50:22.582Z,100311.41
2023-02-23T13:53:47.095Z,100301.13
2023-02-23T13:57:01.396Z,100295.75
2023-02-23T14:00:20.513Z,100297.47
2023-02-23T14:03:35.544Z,100296.94
2023-02-23T14:07:15.280Z,100294.06
2023-02-23T14:10:41.406Z,100288.41
2023-02-23T14:14:01.840Z,100283.22
2023-02-23T14:17:14.374Z,100286.69
2023-02-23T14:20:42.999Z,100285.63
2023-02-23T14:24:21.252Z,100290.09
2023-02-23T14:27:41.461Z,100289.13
2023-02-23T14:31:13.014Z,100286.28
2023-02-23T14:34:49.545Z,100299.59
2023-02-23T14:38:10.984Z,100288.09
2023-02-23T14:41:24.571Z,100291.50
2023-02-23T14:44:41.326Z,100290.88
2023-02-23T14:47:55.872Z,100280.87
2023-02-23T14:51:20.607Z,100280.03
2023-02-23T14:54:37.010Z,100282.88
2023-02-23T14:57:49.984Z,100277.66
2023-02-23T15:01:02.356Z,100277.66
2023-02-23T15:04:18.034Z,100274.84
2023-02-23T15:07:39.543Z,100272.22
2023-02-23T15:11:12.111Z,100269.41
2023-02-23T15:14:28.586Z,100269.81
2023-02-23T15:17:42.535Z,100268.38
2023-02-23T15:20:54.989Z,100264.19
2023-02-23T15:24:13.392Z,100262.75
2023-02-23T15:27:30.150Z,100262.34
2023-02-23T15:30:47.330Z,100255.91
2023-02-23T15:33:59.649Z,100252.09
2023-02-23T15:37:20.064Z,100246.66
2023-02-23T15:40:33.815Z,100253.87
2023-02-23T15:43:46.455Z,100249.06
2023-02-23T15:47:00.442Z,100253.03
2023-02-23T15:50:35.990Z,100260.31
2023-02-23T15:53:48.736Z,100245.62
2023-02-23T15:57:14.067Z,100253.44
2023-02-23T16:00:40.228Z,100249.41
2023-02-23T16:04:09.378Z,100259.06
2023-02-23T16:07:23.597Z,100256.59
2023-02-23T16:10:41.795Z,100252.16
2023-02-23T16:13:54.185Z,100248.09
2023-02-23T16:17:11.538Z,100252.50
2023-02-23T16:20:35.101Z,100251.81
2023-02-23T16:23:49.273Z,100247.56
2023-02-23T16:27:02.129Z,100257.19
2023-02-23T16:30:23.515Z,100250.56
2023-02-23T16:33:48.568Z,100253.94
2023-02-23T16:37:15.777Z,100257.56
2023-02-23T16:40:28.201Z,100256.31
2023-02-23T16:43:40.766Z,100251.91
2023-02-23T16:47:03.565Z,100255.53
2023-02-23T16:50:20.345Z,100257.09
2023-02-23T16:53:33.019Z,100259.22
2023-02-23T16:56:46.441Z,100259.62
2023-02-23T16:59:58.908Z,100267.44
2023-02-23T17:03:25.511Z,100260.66
2023-02-23T17:06:38.347Z,100265.66
2023-02-23T17:09:50.985Z,100263.06
2023-02-23T17:13:08.251Z,100259.66
2023-02-23T17:16:21.200Z,100255.22
2023-02-23T17:19:33.797Z,100265.75
2023-02-23T17:22:46.400Z,100263.72
2023-02-23T17:25:58.969Z,100263.72
2023-02-23T17:29:11.671Z,100261.25
2023-02-23T17:32:24.373Z,100259.66
2023-02-23T17:35:37.593Z,100262.00
2023-02-23T17:38:49.933Z,100264.00
2023-02-23T17:42:02.531Z,100251.91
2023-02-23T17:45:14.862Z,100255.94
2023-02-23T17:48:27.880Z,100257.44
2023-02-23T17:51:40.520Z,100253.09
2023-02-23T17:54:54.503Z,100256.31
2023-02-23T17:58:06.824Z,100251.75
2023-02-23T18:01:19.998Z,100252.34
2023-02-23T18:04:32.858Z,100254.16
2023-02-23T18:07:48.289Z,100250.91
2023-02-23T18:11:01.309Z,100250.75
2023-02-23T18:14:14.455Z,100247.63
2023-02-23T18:17:27.144Z,100249.16
2023-02-23T18:20:39.478Z,100252.81
2023-02-23T18:23:52.144Z,100250.87
2023-02-23T18:27:04.594Z,100253.69
2023-02-23T18:30:17.295Z,100245.59
2023-02-23T18:33:31.506Z,100242.75
2023-02-23T18:36:44.167Z,100236.69
2023-02-23T18:39:57.867Z,100239.84
2023-02-23T18:43:11.119Z,100238.97
2023-02-23T18:46:23.498Z,100239.69
2023-02-23T18:49:37.002Z,100242.00
2023-02-23T18:52:50.917Z,100243.16
2023-02-23T18:56:05.716Z,100243.75
2023-02-23T18:59:18.105Z,100245.62
2023-02-23T19:02:30.718Z,100246.97
2023-02-23T19:05:52.870Z,100242.97
2023-02-23T19:09:09.760Z,100241.25
2023-02-23T19:12:22.164Z,100235.41
2023-02-23T19:15:35.448Z,100228.97
2023-02-23T19:18:47.978Z,100235.34
2023-02-23T19:22:00.580Z,100236.41
2023-02-23T19:25:14.507Z,100234.06
2023-02-23T19:28:27.366Z,100232.31
2023-02-23T19:31:39.837Z,100235.03
2023-02-23T19:34:52.580Z,100238.44
2023-02-23T19:38:04.895Z,100237.09
2023-02-23T19:41:20.843Z,100233.03
2023-02-23T19:44:34.026Z,100227.31
2023-02-23T19:47:46.805Z,100226.97
2023-02-23T19:50:59.165Z,100227.69
2023-02-23T19:54:11.796Z,100225.19
2023-02-23T19:57:24.172Z,100227.19
2023-02-23T20:00:36.796Z,100223.53
2023-02-23T20:03:55.344Z,100229.59
2023-02-23T20:07:09.924Z,100224.59
2023-02-23T20:10:25.842Z,100227.84
2023-02-23T20:13:39.139Z,100239.72
2023-02-23T20:16:51.900Z,100244.25
2023-02-23T20:20:06.298Z,100234.88
2023-02-23T20:23:18.951Z,100234.31
2023-02-23T20:26:34.269Z,100224.09
2023-02-23T20:29:48.102Z,100227.25
2023-02-23T20:33:02.465Z,100228.06
2023-02-23T20:36:15.109Z,100224.06
2023-02-23T20:39:27.515Z,100227.00
2023-02-23T20:42:41.676Z,100220.78
2023-02-23T20:45:54.849Z,100216.72
2023-02-23T20:49:11.242Z,100216.63
2023-02-23T20:52:23.658Z,100210.28
2023-02-23T20:55:36.328Z,100212.63
2023-02-23T20:58:48.681Z,100207.91
2023-02-23T21:02:01.744Z,100202.25
2023-02-23T21:05:14.566Z,100201.47
2023-02-23T21:08:28.785Z,100196.84
2023-02-23T21:11:41.291Z,100199.16
2023-02-23T21:14:53.959Z,100199.56
2023-02-23T21:18:06.561Z,100194.66
2023-02-23T21:21:19.474Z,100192.34
2023-02-23T21:24:34.763Z,100195.34
2023-02-23T21:27:48.176Z,100188.78
2023-02-23T21:31:00.543Z,100186.59
2023-02-23T21:34:15.403Z,100187.78
2023-02-23T21:37:27.911Z,100189.56
2023-02-23T21:40:42.401Z,100183.34
2023-02-23T21:43:54.772Z,100192.00
2023-02-23T21:47:07.523Z,100192.78
2023-02-23T21:50:20.163Z,100192.59
2023-02-23T21:53:33.097Z,100184.31
2023-02-23T21:56:45.378Z,100187.16
2023-02-23T21:59:58.193Z,100193.28
2023-02-23T22:03:10.628Z,100179.31
2023-02-23T22:06:28.319Z,100183.97
2023-02-23T22:09:40.715Z,100170.88
2023-02-23T22:12:57.005Z,100175.59
2023-02-23T22:16:09.559Z,100165.56
2023-02-23T22:19:22.229Z,100175.06
2023-02-23T22:22:36.270Z,100163.16
2023-02-23T22:25:48.988Z,100158.56
2023-02-23T22:29:01.439Z,100156.22
2023-02-23T22:32:14.319Z,100156.97
2023-02-23T22:35:26.752Z,100161.75
2023-02-23T22:38:40.516Z,100153.16
2023-02-23T22:41:52.904Z,100151.63
2023-02-23T22:45:06.227Z,100143.13
2023-02-23T22:48:18.520Z,100145.87
2023-02-23T22:51:31.160Z,100141.72
2023-02-23T22:54:45.635Z,100140.44
2023-02-23T22:57:59.912Z,100137.59
2023-02-23T23:01:12.391Z,100124.31
2023-02-23T23:04:25.901Z,100121.50
2023-02-23T23:07:38.273Z,100126.25
2023-02-23T23:10:51.033Z,100116.31
2023-02-23T23:14:06.953Z,100116.97
2023-02-23T23:17:20.392Z,100118.63
2023-02-23T23:20:32.748Z,100107.91
2023-02-23T23:23:45.440Z,100119.34
2023-02-23T23:27:00.275Z,100114.78
2023-02-23T23:30:13.367Z,100121.16
2023-02-23T23:33:26.982Z,100114.38
2023-02-23T23:36:43.073Z,100105.84
2023-02-23T23:39:59.317Z,100109.00
2023-02-23T23:43:12.272Z,100091.78
2023-02-23T23:46:26.271Z,100087.16
2023-02-23T23:49:39.188Z,100082.81
2023-02-23T23:52:51.811Z,100082.09
2023-02-23T23:56:06.409Z,100073.00
2023-02-23T23:59:21.395Z,100069.78
